• Join FlightAware (Why Join?)
  • Login
  • US Flag 
11:09AM EDT


 

Airport Tracker/Info


-or-


 

Live Flight TrackerFlight Track Log ✈ KAP550 ✈ 06-May-2013 ✈ KALB - KMSS

Flight Track Log - Related Links

Times and Time Zones

All times are in EDT time to prevent confusion due to time zone crossing. See the KAP550 flight status page for this flight to view local times or setup timezone preferences in your user account.

Time Position Orientation Groundspeed Altitude Reporting Facility
EDT Latitude Longitude Course Direction KTS MPH feet Rate Location/Type
02:22PM 42.7272 -73.8561 342° North 134 154 2,800  Level Boston Center
02:24PM 42.7997 -73.8889 342° North 145 167 4,700 780 Climbing Boston Center
02:25PM 42.8350 -73.9011 346° North 148 170 5,200 540 Climbing Boston Center
02:27PM 42.9009 -73.8557 27° Northeast  Level FlightAware Approximate
02:28PM 42.9636 -73.9522 27° Northeast 160 184 7,100  Level Boston Center
02:30PM 43.0160 -73.9752 North  Level Estimated
02:30PM 43.0422 -73.9828 North 148 170 8,200  Level Boston Center
02:31PM 43.0836 -74.0064 337° Northwest 148 170 8,500 120 Climbing Boston Center
02:32PM 43.1250 -74.0217 345° North 159 183 8,500  Level Boston Center
02:33PM 43.1747 -74.0458 340° North 169 194 8,500  Level Boston Center
02:34PM 43.2161 -74.0639 342° North 169 194 8,500  Level Boston Center
02:35PM 43.2639 -74.0853 342° North 164 189 8,500  Level Boston Center
02:36PM 43.3033 -74.1033 342° North 164 189 8,500  Level Boston Center
02:37PM 43.3486 -74.1247 341° North 164 189 8,500  Level Boston Center
02:38PM 43.3942 -74.1458 341° North 164 189 8,500  Level Boston Center
02:39PM 43.4378 -74.1642 343° North 170 196 8,500  Level Boston Center
02:41PM 43.4923 -74.1881 342° North  Level FlightAware Approximate
02:41PM 43.5247 -74.2011 342° North 164 189 8,500  Level Boston Center
02:43PM 43.5793 -74.2251 342° North  Level FlightAware Approximate
02:43PM 43.6136 -74.2411 342° North 164 189 8,500  Level Boston Center
02:44PM 43.6592 -74.2625 341° North 164 189 8,500  Level Boston Center
02:45PM 43.7006 -74.2781 345° North 164 189 8,500  Level Boston Center
02:46PM 43.7461 -74.3025 339° North 164 189 8,500  Level Boston Center
02:48PM 43.8007 -74.3264 342° North  Level FlightAware Approximate
02:51PM 43.9675 -74.4017 342° North 164 189 8,500  Level Boston Center
02:52PM 44.0108 -74.4203 343° North 164 189 8,500  Level Boston Center
02:53PM 44.0544 -74.4392 343° North 164 189 8,500  Level Boston Center
02:54PM 44.0978 -74.4578 343° North 164 189 8,500  Level Boston Center
02:55PM 44.0801 -74.4498 342° North  Level FlightAware Approximate
02:55PM 44.1453 -74.4828 339° North 164 189 8,500  Level Boston Center
02:56PM 44.1200 -74.4675 342° North  Level FlightAware Approximate
02:57PM 44.1997 -74.5074 342° North  Level Estimated
02:57PM 44.1599 -74.4852 342° North  Level FlightAware Approximate
03:00PM 44.3706 -74.5806 342° North 164 189 8,500  Level Boston Center
03:02PM 44.4258 -74.6068 341° North  Level FlightAware Approximate
03:02PM 44.4575 -74.6186 341° North 164 189 8,500  Level Boston Center
03:04PM 44.4785 -74.6342 342° North  Level Estimated
03:04PM 44.5121 -74.6476 339° North  Level FlightAware Approximate
03:04PM 44.5564 -74.6658 339° North 169 194 7,800  Level Boston Center
03:05PM 44.5183 -74.6524 342° North  Level Estimated
03:06PM 44.5589 -74.6712 342° North  Level FlightAware Approximate
03:06PM 44.6035 -74.6885 341° North  Level FlightAware Approximate
03:06PM 44.6619 -74.7136 341° North 188 216 6,500  Level Boston Center
03:08PM 44.7088 -74.7373 340° North  Level FlightAware Approximate
03:15PM 44.9333 -74.8333 345° North  Level FlightAware Approximate
03:16PM 44.9362 -74.8451 345° North  Level Estimated
03:17PM 44.9362 -74.8451 345° North  Level Estimated
03:18PM 44.9362 -74.8451 345° North  Level Estimated
03:19PM 44.9362 -74.8451 345° North  Level Estimated
03:20PM 44.9362 -74.8451 345° North  Level Estimated
03:21PM 44.9362 -74.8451 345° North  Level Estimated
03:22PM 44.9362 -74.8451 345° North  Level Estimated
03:23PM 44.9362 -74.8451 345° North  Level Estimated
03:24PM 44.9362 -74.8451 345° North  Level Estimated
03:25PM 44.9362 -74.8451 345° North  Level Estimated
03:26PM 44.9362 -74.8451 345° North  Level Estimated
03:27PM 44.9362 -74.8451 345° North  Level Estimated
03:28PM 44.9362 -74.8451 345° North  Level Estimated
03:29PM 44.9362 -74.8451 345° North  Level Estimated
03:30PM 44.9362 -74.8451 345° North  Level Estimated
03:31PM 44.9362 -74.8451 345° North  Level Estimated
03:32PM 44.9362 -74.8451 345° North  Level Estimated
03:33PM 44.9362 -74.8451 345° North  Level Estimated
03:34PM 44.9362 -74.8451 345° North  Level Estimated
03:35PM 44.9362 -74.8451 345° North  Level Estimated